createdAt,value
2022-09-03T00:03:38.511Z,79.60
2022-09-03T00:07:44.784Z,79.80
2022-09-03T00:11:52.065Z,79.70
2022-09-03T00:15:57.121Z,79.70
2022-09-03T00:20:01.438Z,80.00
2022-09-03T00:24:05.470Z,79.70
2022-09-03T00:28:12.742Z,79.60
2022-09-03T00:32:19.424Z,79.80
2022-09-03T00:36:25.723Z,79.80
2022-09-03T00:40:34.832Z,80.00
2022-09-03T00:44:50.975Z,80.00
2022-09-03T00:49:05.610Z,80.50
2022-09-03T00:53:12.941Z,80.50
2022-09-03T00:57:24.602Z,80.40
2022-09-03T01:01:31.038Z,80.60
2022-09-03T01:05:40.957Z,80.50
2022-09-03T01:09:49.092Z,81.10
2022-09-03T01:13:55.536Z,81.00
2022-09-03T01:18:03.442Z,80.90
2022-09-03T01:22:21.092Z,81.10
2022-09-03T01:26:32.896Z,81.20
2022-09-03T01:30:39.096Z,81.10
2022-09-03T01:34:47.102Z,81.30
2022-09-03T01:38:51.688Z,81.60
2022-09-03T01:43:02.300Z,81.40
2022-09-03T01:47:11.119Z,81.40
2022-09-03T01:51:19.623Z,81.80
2022-09-03T01:55:31.092Z,82.50
2022-09-03T01:59:35.765Z,82.60
2022-09-03T02:03:42.772Z,83.70
2022-09-03T02:07:48.554Z,84.20
2022-09-03T02:11:53.133Z,83.40
2022-09-03T02:15:58.927Z,83.70
2022-09-03T02:20:05.410Z,83.70
2022-09-03T02:24:09.126Z,84.20
2022-09-03T02:28:17.661Z,84.70
2022-09-03T02:32:20.698Z,84.10
2022-09-03T02:36:27.700Z,85.00
2022-09-03T02:40:30.686Z,84.70
2022-09-03T02:44:34.333Z,85.10
2022-09-03T02:48:37.577Z,85.00
2022-09-03T02:52:41.744Z,84.80
2022-09-03T02:56:48.336Z,85.60
2022-09-03T03:00:51.136Z,85.50
2022-09-03T03:04:55.619Z,85.80
2022-09-03T03:09:00.156Z,85.40
2022-09-03T03:13:02.987Z,85.50
2022-09-03T03:17:05.862Z,86.10
2022-09-03T03:21:09.514Z,86.60
2022-09-03T03:25:13.712Z,86.20
2022-09-03T03:29:17.903Z,86.60
2022-09-03T03:33:20.773Z,87.10
2022-09-03T03:37:24.893Z,87.60
2022-09-03T03:41:31.398Z,87.30
2022-09-03T03:45:34.267Z,87.10
2022-09-03T03:49:37.220Z,87.30
2022-09-03T03:53:40.611Z,86.80
2022-09-03T03:57:44.778Z,87.60
2022-09-03T04:01:50.860Z,87.40
2022-09-03T04:05:57.206Z,86.90
2022-09-03T04:10:00.026Z,86.50
2022-09-03T04:14:04.379Z,86.40
2022-09-03T04:18:07.375Z,87.20
2022-09-03T04:22:10.340Z,87.50
2022-09-03T04:26:14.163Z,87.60
2022-09-03T04:30:18.779Z,87.30
2022-09-03T04:34:24.720Z,87.50
2022-09-03T04:38:32.651Z,87.60
2022-09-03T04:42:35.486Z,88.10
2022-09-03T04:46:40.507Z,87.90
2022-09-03T04:50:43.366Z,87.50
2022-09-03T04:54:46.440Z,88.30
2022-09-03T04:58:51.228Z,87.50
2022-09-03T05:02:55.504Z,88.00
2022-09-03T05:06:58.312Z,88.20
2022-09-03T05:11:01.432Z,88.80
2022-09-03T05:15:05.557Z,88.60
2022-09-03T05:19:10.772Z,88.10
2022-09-03T05:23:14.387Z,88.70
2022-09-03T05:27:17.926Z,88.80
2022-09-03T05:31:21.335Z,89.80
2022-09-03T05:35:29.013Z,89.50
2022-09-03T05:39:33.247Z,89.50
2022-09-03T05:43:36.489Z,90.10
2022-09-03T05:47:40.404Z,90.80
2022-09-03T05:51:45.117Z,90.30
2022-09-03T05:55:55.996Z,90.30
2022-09-03T05:59:58.828Z,90.20
2022-09-03T06:04:02.432Z,90.30
2022-09-03T06:08:06.583Z,90.50
2022-09-03T06:12:10.477Z,90.90
2022-09-03T06:16:13.356Z,90.40
2022-09-03T06:20:16.281Z,90.90
2022-09-03T06:24:23.275Z,90.40
2022-09-03T06:28:29.387Z,90.60
2022-09-03T06:32:32.214Z,90.60
2022-09-03T06:36:35.123Z,91.10
2022-09-03T06:40:39.283Z,91.30
2022-09-03T06:44:42.104Z,90.80
2022-09-03T06:48:45.631Z,90.90
2022-09-03T06:52:53.828Z,91.10
2022-09-03T06:56:58.671Z,91.00
2022-09-03T07:01:02.664Z,91.10
2022-09-03T07:05:05.931Z,91.70
2022-09-03T07:09:12.516Z,91.60
2022-09-03T07:13:16.708Z,91.40
2022-09-03T07:17:19.519Z,91.00
2022-09-03T07:21:23.067Z,91.80
2022-09-03T07:25:26.300Z,91.70
2022-09-03T07:29:30.498Z,91.70
2022-09-03T07:33:34.148Z,91.40
2022-09-03T07:37:38.464Z,91.70
2022-09-03T07:41:42.769Z,91.40
2022-09-03T07:45:52.675Z,91.70
2022-09-03T07:49:55.533Z,91.50
2022-09-03T07:53:59.383Z,91.50
2022-09-03T07:58:02.160Z,99.70
2022-09-03T08:02:07.014Z,91.40
2022-09-03T08:06:10.098Z,91.20
2022-09-03T08:10:13.638Z,91.20
2022-09-03T08:14:16.610Z,91.20
2022-09-03T08:18:20.775Z,91.20
2022-09-03T08:22:25.607Z,90.60
2022-09-03T08:26:28.896Z,90.70
2022-09-03T08:30:31.716Z,90.40
2022-09-03T08:34:35.883Z,90.60
2022-09-03T08:38:38.694Z,90.50
2022-09-03T08:42:46.488Z,90.50
2022-09-03T08:46:51.718Z,90.60
2022-09-03T08:50:59.984Z,90.40
2022-09-03T08:55:15.443Z,90.30
2022-09-03T08:59:18.269Z,90.10
2022-09-03T09:03:34.612Z,89.80
2022-09-03T09:07:44.626Z,88.40
2022-09-03T09:11:51.696Z,88.70
2022-09-03T09:16:00.035Z,87.90
2022-09-03T09:20:07.231Z,88.50
2022-09-03T09:24:14.347Z,88.10
2022-09-03T09:28:19.392Z,87.90
2022-09-03T09:32:22.464Z,86.80
2022-09-03T09:36:26.129Z,86.10
2022-09-03T09:40:35.372Z,86.50
2022-09-03T09:44:39.066Z,85.00
2022-09-03T09:48:48.604Z,85.00
2022-09-03T09:53:00.922Z,85.10
2022-09-03T09:57:07.003Z,85.70
2022-09-03T10:01:13.183Z,84.50
2022-09-03T10:05:17.291Z,84.60
2022-09-03T10:09:21.524Z,84.50
2022-09-03T10:13:36.946Z,84.10
2022-09-03T10:17:44.831Z,84.30
2022-09-03T10:21:52.726Z,84.50
2022-09-03T10:26:07.220Z,84.70
2022-09-03T10:30:12.183Z,83.30
2022-09-03T10:34:17.483Z,82.30
2022-09-03T10:38:25.850Z,82.80
2022-09-03T10:42:37.464Z,82.20
2022-09-03T10:46:47.547Z,80.60
2022-09-03T10:50:54.488Z,81.50
2022-09-03T10:55:03.826Z,80.20
2022-09-03T10:59:17.805Z,79.00
2022-09-03T11:03:39.073Z,81.30
2022-09-03T11:07:45.022Z,81.10
2022-09-03T11:11:50.645Z,80.20
2022-09-03T11:15:54.868Z,79.70
2022-09-03T11:20:01.814Z,79.50
2022-09-03T11:24:12.235Z,80.10
2022-09-03T11:28:19.613Z,79.30
2022-09-03T11:32:24.238Z,79.60
2022-09-03T11:36:32.391Z,76.80
2022-09-03T11:40:37.899Z,77.10
2022-09-03T11:44:47.972Z,77.70
2022-09-03T11:48:55.525Z,78.30
2022-09-03T11:53:10.410Z,78.30
2022-09-03T11:57:15.688Z,77.30
2022-09-03T12:01:19.292Z,78.90
2022-09-03T12:05:25.544Z,77.50
2022-09-03T12:09:43.792Z,77.90
2022-09-03T12:13:52.495Z,77.60
2022-09-03T12:18:10.483Z,77.30
2022-09-03T12:22:18.107Z,77.80
2022-09-03T12:26:23.867Z,75.20
2022-09-03T12:30:30.381Z,74.50
2022-09-03T12:34:33.716Z,77.10
2022-09-03T12:38:54.717Z,76.10
2022-09-03T12:47:41.080Z,75.50
2022-09-03T12:51:52.336Z,75.20
2022-09-03T12:55:59.302Z,74.30
2022-09-03T13:00:05.726Z,74.50
2022-09-03T13:04:11.083Z,74.30
2022-09-03T13:08:16.223Z,74.10
2022-09-03T13:12:22.727Z,72.50
2022-09-03T13:16:40.545Z,72.40
2022-09-03T13:20:50.282Z,72.50
2022-09-03T13:25:09.222Z,73.30
2022-09-03T13:29:19.859Z,72.40
2022-09-03T13:33:26.581Z,72.40
2022-09-03T13:37:36.438Z,72.30
2022-09-03T13:41:41.288Z,73.00
2022-09-03T13:45:46.536Z,73.00
2022-09-03T13:50:10.113Z,73.80
2022-09-03T13:54:31.173Z,73.60
2022-09-03T13:58:44.969Z,73.70
2022-09-03T14:02:52.011Z,73.70
2022-09-03T14:07:00.259Z,73.80
2022-09-03T14:11:15.181Z,73.60
2022-09-03T14:15:19.923Z,74.30
2022-09-03T14:19:24.777Z,73.80
2022-09-03T14:23:34.094Z,73.60
2022-09-03T14:27:38.714Z,73.00
2022-09-03T14:31:59.824Z,73.40
2022-09-03T14:36:07.644Z,74.20
2022-09-03T14:40:14.406Z,74.60
2022-09-03T14:44:28.786Z,73.60
2022-09-03T14:48:50.103Z,73.80
2022-09-03T14:53:00.978Z,73.80
2022-09-03T14:57:13.215Z,73.30
2022-09-03T15:01:23.341Z,73.40
2022-09-03T15:05:36.048Z,73.00
2022-09-03T15:09:41.276Z,73.40
2022-09-03T15:13:47.828Z,72.80
2022-09-03T15:18:03.288Z,72.90
2022-09-03T15:22:11.160Z,73.00
2022-09-03T15:26:24.816Z,73.40
2022-09-03T15:30:33.407Z,73.00
2022-09-03T15:34:43.714Z,73.90
2022-09-03T15:38:50.923Z,73.80
2022-09-03T15:42:56.875Z,74.10
2022-09-03T15:47:00.711Z,74.20
2022-09-03T15:51:12.183Z,74.20
2022-09-03T15:55:16.666Z,74.20
2022-09-03T15:59:20.669Z,74.50
2022-09-03T16:03:33.165Z,72.30
2022-09-03T16:07:55.338Z,72.30
2022-09-03T16:12:02.936Z,70.60
2022-09-03T16:16:07.174Z,70.90
2022-09-03T16:20:15.569Z,70.50
2022-09-03T16:24:23.947Z,69.90
2022-09-03T16:28:29.939Z,70.40
2022-09-03T16:32:36.657Z,71.30
2022-09-03T16:36:44.721Z,70.60
2022-09-03T16:40:52.456Z,70.80
2022-09-03T16:45:08.376Z,70.80
2022-09-03T16:49:16.762Z,70.20
2022-09-03T16:53:28.901Z,69.90
2022-09-03T16:57:40.052Z,69.80
2022-09-03T17:01:52.596Z,70.00
2022-09-03T17:06:17.952Z,69.60
2022-09-03T17:10:24.605Z,69.80
2022-09-03T17:14:45.744Z,70.20
2022-09-03T17:18:53.131Z,70.40
2022-09-03T17:23:04.691Z,70.30
2022-09-03T17:27:25.832Z,70.70
2022-09-03T17:31:31.623Z,70.50
2022-09-03T17:35:39.088Z,70.60
2022-09-03T17:40:05.148Z,70.40
2022-09-03T17:44:14.924Z,70.60
2022-09-03T17:48:38.224Z,71.00
2022-09-03T17:52:45.228Z,70.90
2022-09-03T17:56:50.418Z,71.10
2022-09-03T18:00:55.476Z,71.30
2022-09-03T18:05:00.830Z,71.30
2022-09-03T18:09:08.431Z,71.50
2022-09-03T18:13:15.132Z,71.70
2022-09-03T18:17:26.430Z,71.70
2022-09-03T18:21:48.008Z,71.80
2022-09-03T18:26:13.408Z,71.90
2022-09-03T18:30:34.499Z,72.00
2022-09-03T18:34:55.154Z,72.10
2022-09-03T18:39:16.836Z,72.30
2022-09-03T18:43:41.744Z,72.30
2022-09-03T18:48:15.333Z,72.50
2022-09-03T18:52:41.899Z,72.60
2022-09-03T18:57:03.923Z,72.60
2022-09-03T19:01:29.295Z,72.70
2022-09-03T19:05:52.810Z,72.80
2022-09-03T19:10:16.690Z,72.90
2022-09-03T19:14:45.488Z,73.00
2022-09-03T19:19:14.351Z,73.40
2022-09-03T19:23:34.732Z,73.40
2022-09-03T19:28:00.141Z,73.70
2022-09-03T19:32:23.378Z,73.70
2022-09-03T19:36:49.008Z,74.00
2022-09-03T19:41:15.789Z,73.90
2022-09-03T19:45:41.072Z,74.40
2022-09-03T19:50:09.997Z,74.20
2022-09-03T19:54:32.109Z,74.40
2022-09-03T19:58:53.891Z,74.30
2022-09-03T20:03:15.006Z,74.30
2022-09-03T20:07:36.181Z,75.10
2022-09-03T20:11:41.648Z,74.60
2022-09-03T20:15:48.460Z,74.30
2022-09-03T20:19:58.750Z,74.40
2022-09-03T20:24:11.269Z,74.70
2022-09-03T20:28:22.228Z,74.50
2022-09-03T20:32:36.808Z,74.60
2022-09-03T20:36:44.148Z,75.00
2022-09-03T20:40:56.756Z,75.00
2022-09-03T20:45:06.644Z,75.10
2022-09-03T20:49:14.017Z,75.20
2022-09-03T20:53:25.772Z,75.10
2022-09-03T20:57:36.937Z,75.30
2022-09-03T21:01:46.742Z,75.10
2022-09-03T21:05:56.228Z,75.30
2022-09-03T21:10:01.923Z,75.10
2022-09-03T21:14:10.272Z,75.30
2022-09-03T21:18:17.698Z,75.20
2022-09-03T21:22:29.054Z,75.30
2022-09-03T21:26:33.804Z,75.70
2022-09-03T21:30:40.828Z,76.10
2022-09-03T21:34:51.579Z,75.90
2022-09-03T21:39:00.019Z,76.40
2022-09-03T21:43:07.500Z,77.50
2022-09-03T21:47:11.538Z,76.60
2022-09-03T21:51:18.370Z,76.60
2022-09-03T21:55:23.140Z,76.70
2022-09-03T21:59:31.940Z,77.00
2022-09-03T22:03:35.244Z,77.20
2022-09-03T22:07:57.020Z,77.00
2022-09-03T22:12:03.486Z,76.90
2022-09-03T22:16:13.783Z,76.70
2022-09-03T22:20:18.344Z,76.90
2022-09-03T22:24:25.237Z,76.70
2022-09-03T22:28:31.195Z,76.60
2022-09-03T22:32:42.003Z,76.70
2022-09-03T22:36:48.411Z,76.60
2022-09-03T22:40:56.417Z,76.80
2022-09-03T22:45:08.644Z,77.00
2022-09-03T22:49:19.932Z,77.40
2022-09-03T22:53:29.008Z,77.10
2022-09-03T22:57:36.820Z,77.40
2022-09-03T23:01:42.076Z,77.30
2022-09-03T23:05:46.406Z,77.10
2022-09-03T23:09:51.706Z,77.10
2022-09-03T23:14:00.490Z,77.40
2022-09-03T23:18:06.091Z,77.80
2022-09-03T23:22:11.264Z,77.80
2022-09-03T23:26:17.422Z,77.80
2022-09-03T23:30:21.934Z,77.80
2022-09-03T23:34:25.216Z,78.80
2022-09-03T23:38:31.332Z,78.40
2022-09-03T23:42:41.253Z,78.10
2022-09-03T23:46:51.479Z,78.30
2022-09-03T23:50:59.267Z,78.90
2022-09-03T23:55:06.867Z,78.90
2022-09-03T23:59:13.533Z,78.20
